sensor_id;sensor_type;location;lat;lon;timestamp;P1;durP1;ratioP1;P2;durP2;ratioP2
50880;SDS011;36858;47.832;-3.800;2024-01-06T00:00:11;2.87;;;1.27;;
50880;SDS011;36858;47.832;-3.800;2024-01-06T00:02:38;5.27;;;1.33;;
50880;SDS011;36858;47.832;-3.800;2024-01-06T00:05:05;3.33;;;1.17;;
50880;SDS011;36858;47.832;-3.800;2024-01-06T00:07:33;4.07;;;0.90;;
50880;SDS011;36858;47.832;-3.800;2024-01-06T00:09:59;5.23;;;1.20;;
50880;SDS011;36858;47.832;-3.800;2024-01-06T00:12:26;2.50;;;1.10;;
50880;SDS011;36858;47.832;-3.800;2024-01-06T00:14:53;4.57;;;1.47;;
50880;SDS011;36858;47.832;-3.800;2024-01-06T00:17:20;4.70;;;1.60;;
50880;SDS011;36858;47.832;-3.800;2024-01-06T00:19:47;1.57;;;1.10;;
50880;SDS011;36858;47.832;-3.800;2024-01-06T00:22:18;2.53;;;1.13;;
50880;SDS011;36858;47.832;-3.800;2024-01-06T00:24:45;3.87;;;1.10;;
50880;SDS011;36858;47.832;-3.800;2024-01-06T00:27:13;4.23;;;1.17;;
50880;SDS011;36858;47.832;-3.800;2024-01-06T00:29:40;3.00;;;1.03;;
50880;SDS011;36858;47.832;-3.800;2024-01-06T00:32:07;4.83;;;1.63;;
50880;SDS011;36858;47.832;-3.800;2024-01-06T00:34:34;6.50;;;1.20;;
50880;SDS011;36858;47.832;-3.800;2024-01-06T00:37:01;3.03;;;1.40;;
50880;SDS011;36858;47.832;-3.800;2024-01-06T00:39:28;3.83;;;1.23;;
50880;SDS011;36858;47.832;-3.800;2024-01-06T00:41:55;4.17;;;1.17;;
50880;SDS011;36858;47.832;-3.800;2024-01-06T00:44:22;6.50;;;1.63;;
50880;SDS011;36858;47.832;-3.800;2024-01-06T00:46:50;4.77;;;1.20;;
50880;SDS011;36858;47.832;-3.800;2024-01-06T00:49:17;3.67;;;1.30;;
50880;SDS011;36858;47.832;-3.800;2024-01-06T00:51:44;2.63;;;1.20;;
50880;SDS011;36858;47.832;-3.800;2024-01-06T00:54:11;3.20;;;1.00;;
50880;SDS011;36858;47.832;-3.800;2024-01-06T00:56:38;4.17;;;0.83;;
50880;SDS011;36858;47.832;-3.800;2024-01-06T00:59:05;4.50;;;1.70;;
50880;SDS011;36858;47.832;-3.800;2024-01-06T01:01:32;2.37;;;0.90;;
50880;SDS011;36858;47.832;-3.800;2024-01-06T01:03:59;3.70;;;1.07;;
50880;SDS011;36858;47.832;-3.800;2024-01-06T01:06:26;4.40;;;1.77;;
50880;SDS011;36858;47.832;-3.800;2024-01-06T01:08:53;1.90;;;0.90;;
50880;SDS011;36858;47.832;-3.800;2024-01-06T01:11:20;2.67;;;0.80;;
50880;SDS011;36858;47.832;-3.800;2024-01-06T01:13:47;2.13;;;1.20;;
50880;SDS011;36858;47.832;-3.800;2024-01-06T01:16:14;3.60;;;1.17;;
50880;SDS011;36858;47.832;-3.800;2024-01-06T01:18:40;4.10;;;1.27;;
50880;SDS011;36858;47.832;-3.800;2024-01-06T01:21:07;3.37;;;1.20;;
50880;SDS011;36858;47.832;-3.800;2024-01-06T01:23:34;3.43;;;0.90;;
50880;SDS011;36858;47.832;-3.800;2024-01-06T01:26:01;2.63;;;1.20;;
50880;SDS011;36858;47.832;-3.800;2024-01-06T01:28:28;2.67;;;1.10;;
50880;SDS011;36858;47.832;-3.800;2024-01-06T01:30:55;4.40;;;1.03;;
50880;SDS011;36858;47.832;-3.800;2024-01-06T01:33:22;4.63;;;1.30;;
50880;SDS011;36858;47.832;-3.800;2024-01-06T01:35:50;2.10;;;1.00;;
50880;SDS011;36858;47.832;-3.800;2024-01-06T01:38:17;3.03;;;0.93;;
50880;SDS011;36858;47.832;-3.800;2024-01-06T01:40:44;5.33;;;1.10;;
50880;SDS011;36858;47.832;-3.800;2024-01-06T01:43:17;2.83;;;1.07;;
50880;SDS011;36858;47.832;-3.800;2024-01-06T01:45:52;2.17;;;1.03;;
50880;SDS011;36858;47.832;-3.800;2024-01-06T01:48:20;3.17;;;1.20;;
50880;SDS011;36858;47.832;-3.800;2024-01-06T01:50:50;2.67;;;0.93;;
50880;SDS011;36858;47.832;-3.800;2024-01-06T01:53:19;4.40;;;1.17;;
50880;SDS011;36858;47.832;-3.800;2024-01-06T01:55:47;2.17;;;1.03;;
50880;SDS011;36858;47.832;-3.800;2024-01-06T01:58:14;1.17;;;0.70;;
50880;SDS011;36858;47.832;-3.800;2024-01-06T02:00:42;2.00;;;0.80;;
50880;SDS011;36858;47.832;-3.800;2024-01-06T02:03:09;1.73;;;0.83;;
50880;SDS011;36858;47.832;-3.800;2024-01-06T02:05:38;2.37;;;0.80;;
50880;SDS011;36858;47.832;-3.800;2024-01-06T02:08:05;3.60;;;1.43;;
50880;SDS011;36858;47.832;-3.800;2024-01-06T02:10:32;1.90;;;0.77;;
50880;SDS011;36858;47.832;-3.800;2024-01-06T02:13:07;3.57;;;1.00;;
50880;SDS011;36858;47.832;-3.800;2024-01-06T02:15:37;1.50;;;0.90;;
50880;SDS011;36858;47.832;-3.800;2024-01-06T02:18:05;2.77;;;1.53;;
50880;SDS011;36858;47.832;-3.800;2024-01-06T02:20:32;2.53;;;1.07;;
50880;SDS011;36858;47.832;-3.800;2024-01-06T02:22:59;3.03;;;0.87;;
50880;SDS011;36858;47.832;-3.800;2024-01-06T02:25:27;1.80;;;1.00;;
50880;SDS011;36858;47.832;-3.800;2024-01-06T02:27:55;2.10;;;0.93;;
50880;SDS011;36858;47.832;-3.800;2024-01-06T02:30:23;1.73;;;0.80;;
50880;SDS011;36858;47.832;-3.800;2024-01-06T02:32:50;1.90;;;0.77;;
50880;SDS011;36858;47.832;-3.800;2024-01-06T02:35:17;3.20;;;1.07;;
50880;SDS011;36858;47.832;-3.800;2024-01-06T02:37:44;4.73;;;1.03;;
50880;SDS011;36858;47.832;-3.800;2024-01-06T02:40:11;1.90;;;0.80;;
50880;SDS011;36858;47.832;-3.800;2024-01-06T02:42:38;3.57;;;0.80;;
50880;SDS011;36858;47.832;-3.800;2024-01-06T02:45:06;2.13;;;0.93;;
50880;SDS011;36858;47.832;-3.800;2024-01-06T02:47:34;2.07;;;0.97;;
50880;SDS011;36858;47.832;-3.800;2024-01-06T02:50:01;1.23;;;0.80;;
50880;SDS011;36858;47.832;-3.800;2024-01-06T02:52:28;2.63;;;1.07;;
50880;SDS011;36858;47.832;-3.800;2024-01-06T02:54:55;3.90;;;1.23;;
50880;SDS011;36858;47.832;-3.800;2024-01-06T02:57:22;2.00;;;0.80;;
50880;SDS011;36858;47.832;-3.800;2024-01-06T02:59:49;0.97;;;0.63;;
50880;SDS011;36858;47.832;-3.800;2024-01-06T03:02:17;1.70;;;0.83;;
50880;SDS011;36858;47.832;-3.800;2024-01-06T03:04:43;2.27;;;0.77;;
50880;SDS011;36858;47.832;-3.800;2024-01-06T03:07:10;3.23;;;1.23;;
50880;SDS011;36858;47.832;-3.800;2024-01-06T03:09:37;2.40;;;1.10;;
50880;SDS011;36858;47.832;-3.800;2024-01-06T03:12:07;2.23;;;0.83;;
50880;SDS011;36858;47.832;-3.800;2024-01-06T03:14:35;2.57;;;0.97;;
50880;SDS011;36858;47.832;-3.800;2024-01-06T03:17:02;3.50;;;1.00;;
50880;SDS011;36858;47.832;-3.800;2024-01-06T03:19:29;2.17;;;0.93;;
50880;SDS011;36858;47.832;-3.800;2024-01-06T03:21:57;1.30;;;1.00;;
50880;SDS011;36858;47.832;-3.800;2024-01-06T03:24:24;2.40;;;0.90;;
50880;SDS011;36858;47.832;-3.800;2024-01-06T03:26:52;3.03;;;1.13;;
50880;SDS011;36858;47.832;-3.800;2024-01-06T03:29:19;2.33;;;1.00;;
50880;SDS011;36858;47.832;-3.800;2024-01-06T03:31:46;3.23;;;1.20;;
50880;SDS011;36858;47.832;-3.800;2024-01-06T03:34:13;3.63;;;0.80;;
50880;SDS011;36858;47.832;-3.800;2024-01-06T03:36:40;1.83;;;0.87;;
50880;SDS011;36858;47.832;-3.800;2024-01-06T03:39:08;4.07;;;0.80;;
50880;SDS011;36858;47.832;-3.800;2024-01-06T03:41:35;1.57;;;0.77;;
50880;SDS011;36858;47.832;-3.800;2024-01-06T03:44:02;1.90;;;1.00;;
50880;SDS011;36858;47.832;-3.800;2024-01-06T03:46:29;2.60;;;0.90;;
50880;SDS011;36858;47.832;-3.800;2024-01-06T03:48:56;2.50;;;1.10;;
50880;SDS011;36858;47.832;-3.800;2024-01-06T03:51:23;3.53;;;1.07;;
50880;SDS011;36858;47.832;-3.800;2024-01-06T03:53:50;2.87;;;1.10;;
50880;SDS011;36858;47.832;-3.800;2024-01-06T03:56:17;1.30;;;0.90;;
50880;SDS011;36858;47.832;-3.800;2024-01-06T03:58:44;3.00;;;1.00;;
50880;SDS011;36858;47.832;-3.800;2024-01-06T04:01:11;3.40;;;1.07;;
50880;SDS011;36858;47.832;-3.800;2024-01-06T04:03:38;3.73;;;1.00;;
50880;SDS011;36858;47.832;-3.800;2024-01-06T04:06:09;4.13;;;1.17;;
50880;SDS011;36858;47.832;-3.800;2024-01-06T04:08:36;2.83;;;1.00;;
50880;SDS011;36858;47.832;-3.800;2024-01-06T04:11:03;2.10;;;0.90;;
50880;SDS011;36858;47.832;-3.800;2024-01-06T04:13:30;2.13;;;0.97;;
50880;SDS011;36858;47.832;-3.800;2024-01-06T04:15:57;2.73;;;0.80;;
50880;SDS011;36858;47.832;-3.800;2024-01-06T04:18:24;3.23;;;0.87;;
50880;SDS011;36858;47.832;-3.800;2024-01-06T04:20:51;2.97;;;1.03;;
50880;SDS011;36858;47.832;-3.800;2024-01-06T04:23:18;3.17;;;1.20;;
50880;SDS011;36858;47.832;-3.800;2024-01-06T04:25:48;3.77;;;1.20;;
50880;SDS011;36858;47.832;-3.800;2024-01-06T04:28:14;4.40;;;1.27;;
50880;SDS011;36858;47.832;-3.800;2024-01-06T04:30:41;2.23;;;0.80;;
50880;SDS011;36858;47.832;-3.800;2024-01-06T04:33:08;3.67;;;0.90;;
50880;SDS011;36858;47.832;-3.800;2024-01-06T04:35:36;2.83;;;1.10;;
50880;SDS011;36858;47.832;-3.800;2024-01-06T04:38:02;4.60;;;1.17;;
50880;SDS011;36858;47.832;-3.800;2024-01-06T04:40:29;3.63;;;1.07;;
50880;SDS011;36858;47.832;-3.800;2024-01-06T04:42:56;3.93;;;1.13;;
50880;SDS011;36858;47.832;-3.800;2024-01-06T04:45:23;6.70;;;1.40;;
50880;SDS011;36858;47.832;-3.800;2024-01-06T04:47:50;3.90;;;0.80;;
50880;SDS011;36858;47.832;-3.800;2024-01-06T04:50:17;3.70;;;1.03;;
50880;SDS011;36858;47.832;-3.800;2024-01-06T04:52:44;3.37;;;1.00;;
50880;SDS011;36858;47.832;-3.800;2024-01-06T04:55:11;3.90;;;1.10;;
50880;SDS011;36858;47.832;-3.800;2024-01-06T04:57:38;7.00;;;1.30;;
50880;SDS011;36858;47.832;-3.800;2024-01-06T05:00:06;2.87;;;0.90;;
50880;SDS011;36858;47.832;-3.800;2024-01-06T05:02:33;2.57;;;1.00;;
50880;SDS011;36858;47.832;-3.800;2024-01-06T05:05:00;6.43;;;1.20;;
50880;SDS011;36858;47.832;-3.800;2024-01-06T05:07:27;3.43;;;0.90;;
50880;SDS011;36858;47.832;-3.800;2024-01-06T05:09:54;5.13;;;1.03;;
50880;SDS011;36858;47.832;-3.800;2024-01-06T05:12:22;4.03;;;1.27;;
50880;SDS011;36858;47.832;-3.800;2024-01-06T05:14:49;5.57;;;1.20;;
50880;SDS011;36858;47.832;-3.800;2024-01-06T05:17:16;4.20;;;1.40;;
50880;SDS011;36858;47.832;-3.800;2024-01-06T05:19:43;3.23;;;1.00;;
50880;SDS011;36858;47.832;-3.800;2024-01-06T05:22:10;4.80;;;1.20;;
50880;SDS011;36858;47.832;-3.800;2024-01-06T05:24:37;3.13;;;1.00;;
50880;SDS011;36858;47.832;-3.800;2024-01-06T05:27:04;4.43;;;1.00;;
50880;SDS011;36858;47.832;-3.800;2024-01-06T05:29:31;6.30;;;1.30;;
50880;SDS011;36858;47.832;-3.800;2024-01-06T05:31:58;7.67;;;1.30;;
50880;SDS011;36858;47.832;-3.800;2024-01-06T05:34:24;2.80;;;0.97;;
50880;SDS011;36858;47.832;-3.800;2024-01-06T05:36:51;2.60;;;0.90;;
50880;SDS011;36858;47.832;-3.800;2024-01-06T05:39:19;7.03;;;1.10;;
50880;SDS011;36858;47.832;-3.800;2024-01-06T05:41:46;3.50;;;0.90;;
50880;SDS011;36858;47.832;-3.800;2024-01-06T05:44:13;3.33;;;0.90;;
50880;SDS011;36858;47.832;-3.800;2024-01-06T05:46:40;3.47;;;1.17;;
50880;SDS011;36858;47.832;-3.800;2024-01-06T05:49:07;3.60;;;0.93;;
50880;SDS011;36858;47.832;-3.800;2024-01-06T05:51:35;4.73;;;1.43;;
50880;SDS011;36858;47.832;-3.800;2024-01-06T05:54:02;3.03;;;1.17;;
50880;SDS011;36858;47.832;-3.800;2024-01-06T05:56:29;4.13;;;1.07;;
50880;SDS011;36858;47.832;-3.800;2024-01-06T05:58:56;5.20;;;1.30;;
50880;SDS011;36858;47.832;-3.800;2024-01-06T06:01:23;4.90;;;1.60;;
50880;SDS011;36858;47.832;-3.800;2024-01-06T06:03:50;3.63;;;1.10;;
50880;SDS011;36858;47.832;-3.800;2024-01-06T06:06:18;5.40;;;1.20;;
50880;SDS011;36858;47.832;-3.800;2024-01-06T06:08:45;2.60;;;0.87;;
50880;SDS011;36858;47.832;-3.800;2024-01-06T06:11:12;3.67;;;0.93;;
50880;SDS011;36858;47.832;-3.800;2024-01-06T06:13:40;2.87;;;1.17;;
50880;SDS011;36858;47.832;-3.800;2024-01-06T06:16:08;3.20;;;1.20;;
50880;SDS011;36858;47.832;-3.800;2024-01-06T06:18:36;4.00;;;1.30;;
50880;SDS011;36858;47.832;-3.800;2024-01-06T06:21:03;4.73;;;1.10;;
50880;SDS011;36858;47.832;-3.800;2024-01-06T06:23:30;7.67;;;0.80;;
50880;SDS011;36858;47.832;-3.800;2024-01-06T06:25:58;3.83;;;1.10;;
50880;SDS011;36858;47.832;-3.800;2024-01-06T06:28:25;2.90;;;0.93;;
50880;SDS011;36858;47.832;-3.800;2024-01-06T06:30:53;2.57;;;0.97;;
50880;SDS011;36858;47.832;-3.800;2024-01-06T06:33:20;5.93;;;1.30;;
50880;SDS011;36858;47.832;-3.800;2024-01-06T06:35:47;5.97;;;0.93;;
50880;SDS011;36858;47.832;-3.800;2024-01-06T06:38:14;4.67;;;1.03;;
50880;SDS011;36858;47.832;-3.800;2024-01-06T06:40:40;2.87;;;1.23;;
50880;SDS011;36858;47.832;-3.800;2024-01-06T06:43:07;8.03;;;1.10;;
50880;SDS011;36858;47.832;-3.800;2024-01-06T06:45:35;2.90;;;1.00;;
50880;SDS011;36858;47.832;-3.800;2024-01-06T06:48:02;4.93;;;0.90;;
50880;SDS011;36858;47.832;-3.800;2024-01-06T06:50:29;2.53;;;1.00;;
50880;SDS011;36858;47.832;-3.800;2024-01-06T06:52:56;3.60;;;0.90;;
50880;SDS011;36858;47.832;-3.800;2024-01-06T06:55:23;3.60;;;0.60;;
50880;SDS011;36858;47.832;-3.800;2024-01-06T06:57:50;3.10;;;1.00;;
50880;SDS011;36858;47.832;-3.800;2024-01-06T07:00:17;3.27;;;0.87;;
50880;SDS011;36858;47.832;-3.800;2024-01-06T07:02:44;2.10;;;0.80;;
50880;SDS011;36858;47.832;-3.800;2024-01-06T07:05:11;4.57;;;1.07;;
50880;SDS011;36858;47.832;-3.800;2024-01-06T07:07:38;1.63;;;0.90;;
50880;SDS011;36858;47.832;-3.800;2024-01-06T07:10:05;3.33;;;0.90;;
50880;SDS011;36858;47.832;-3.800;2024-01-06T07:12:32;6.43;;;1.10;;
50880;SDS011;36858;47.832;-3.800;2024-01-06T07:14:59;6.20;;;1.57;;
50880;SDS011;36858;47.832;-3.800;2024-01-06T07:17:28;3.63;;;1.13;;
50880;SDS011;36858;47.832;-3.800;2024-01-06T07:19:55;1.83;;;0.80;;
50880;SDS011;36858;47.832;-3.800;2024-01-06T07:22:22;3.23;;;0.97;;
50880;SDS011;36858;47.832;-3.800;2024-01-06T07:24:49;3.97;;;1.40;;
50880;SDS011;36858;47.832;-3.800;2024-01-06T07:27:16;2.53;;;0.83;;
50880;SDS011;36858;47.832;-3.800;2024-01-06T07:29:43;4.60;;;1.33;;
50880;SDS011;36858;47.832;-3.800;2024-01-06T07:32:10;6.33;;;1.40;;
50880;SDS011;36858;47.832;-3.800;2024-01-06T07:34:36;2.93;;;1.13;;
50880;SDS011;36858;47.832;-3.800;2024-01-06T07:37:04;4.53;;;1.10;;
50880;SDS011;36858;47.832;-3.800;2024-01-06T07:39:30;4.00;;;1.00;;
50880;SDS011;36858;47.832;-3.800;2024-01-06T07:41:57;3.50;;;1.00;;
50880;SDS011;36858;47.832;-3.800;2024-01-06T07:44:25;6.47;;;1.47;;
50880;SDS011;36858;47.832;-3.800;2024-01-06T07:46:52;3.93;;;1.30;;
50880;SDS011;36858;47.832;-3.800;2024-01-06T07:49:19;2.73;;;0.97;;
50880;SDS011;36858;47.832;-3.800;2024-01-06T07:51:46;3.33;;;1.00;;
50880;SDS011;36858;47.832;-3.800;2024-01-06T07:54:13;2.80;;;0.83;;
50880;SDS011;36858;47.832;-3.800;2024-01-06T07:56:40;4.47;;;1.20;;
50880;SDS011;36858;47.832;-3.800;2024-01-06T07:59:07;5.87;;;1.20;;
50880;SDS011;36858;47.832;-3.800;2024-01-06T08:01:34;3.70;;;1.37;;
50880;SDS011;36858;47.832;-3.800;2024-01-06T08:04:01;4.30;;;1.50;;
50880;SDS011;36858;47.832;-3.800;2024-01-06T08:06:28;5.10;;;1.20;;
50880;SDS011;36858;47.832;-3.800;2024-01-06T08:08:55;4.17;;;0.90;;
50880;SDS011;36858;47.832;-3.800;2024-01-06T08:11:22;2.47;;;1.27;;
50880;SDS011;36858;47.832;-3.800;2024-01-06T08:13:49;5.53;;;1.53;;
50880;SDS011;36858;47.832;-3.800;2024-01-06T08:16:16;4.67;;;1.20;;
50880;SDS011;36858;47.832;-3.800;2024-01-06T08:18:43;2.13;;;1.20;;
50880;SDS011;36858;47.832;-3.800;2024-01-06T08:21:10;3.63;;;1.27;;
50880;SDS011;36858;47.832;-3.800;2024-01-06T08:23:37;3.00;;;0.77;;
50880;SDS011;36858;47.832;-3.800;2024-01-06T08:26:04;5.00;;;0.97;;
50880;SDS011;36858;47.832;-3.800;2024-01-06T08:28:35;5.80;;;0.90;;
50880;SDS011;36858;47.832;-3.800;2024-01-06T08:31:02;2.93;;;0.73;;
50880;SDS011;36858;47.832;-3.800;2024-01-06T08:33:29;2.40;;;1.00;;
50880;SDS011;36858;47.832;-3.800;2024-01-06T08:35:56;2.40;;;0.87;;
50880;SDS011;36858;47.832;-3.800;2024-01-06T08:38:23;2.20;;;0.70;;
50880;SDS011;36858;47.832;-3.800;2024-01-06T08:40:50;2.60;;;0.87;;
50880;SDS011;36858;47.832;-3.800;2024-01-06T08:43:17;2.20;;;0.70;;
50880;SDS011;36858;47.832;-3.800;2024-01-06T08:45:44;2.87;;;0.80;;
50880;SDS011;36858;47.832;-3.800;2024-01-06T08:48:11;1.83;;;0.83;;
50880;SDS011;36858;47.832;-3.800;2024-01-06T08:50:40;5.60;;;0.80;;
50880;SDS011;36858;47.832;-3.800;2024-01-06T08:53:07;2.37;;;0.80;;
50880;SDS011;36858;47.832;-3.800;2024-01-06T08:55:34;2.67;;;0.53;;
50880;SDS011;36858;47.832;-3.800;2024-01-06T08:58:00;1.93;;;0.83;;
50880;SDS011;36858;47.832;-3.800;2024-01-06T09:00:28;3.07;;;0.87;;
50880;SDS011;36858;47.832;-3.800;2024-01-06T09:02:54;1.27;;;0.50;;
50880;SDS011;36858;47.832;-3.800;2024-01-06T09:05:21;1.27;;;0.50;;
50880;SDS011;36858;47.832;-3.800;2024-01-06T09:07:48;1.23;;;0.70;;
50880;SDS011;36858;47.832;-3.800;2024-01-06T09:10:21;2.87;;;0.70;;
50880;SDS011;36858;47.832;-3.800;2024-01-06T09:12:47;2.50;;;0.53;;
50880;SDS011;36858;47.832;-3.800;2024-01-06T09:15:14;3.40;;;0.97;;
50880;SDS011;36858;47.832;-3.800;2024-01-06T09:17:42;1.97;;;0.87;;
50880;SDS011;36858;47.832;-3.800;2024-01-06T09:20:09;3.07;;;0.50;;
50880;SDS011;36858;47.832;-3.800;2024-01-06T09:22:36;4.30;;;0.90;;
50880;SDS011;36858;47.832;-3.800;2024-01-06T09:25:03;2.47;;;0.83;;
50880;SDS011;36858;47.832;-3.800;2024-01-06T09:27:31;1.67;;;0.60;;
50880;SDS011;36858;47.832;-3.800;2024-01-06T09:29:58;3.03;;;0.80;;
50880;SDS011;36858;47.832;-3.800;2024-01-06T09:32:25;2.63;;;0.80;;
50880;SDS011;36858;47.832;-3.800;2024-01-06T09:34:52;3.20;;;0.60;;
50880;SDS011;36858;47.832;-3.800;2024-01-06T09:37:19;2.17;;;0.50;;
50880;SDS011;36858;47.832;-3.800;2024-01-06T09:39:46;1.07;;;0.73;;
50880;SDS011;36858;47.832;-3.800;2024-01-06T09:42:13;0.93;;;0.70;;
50880;SDS011;36858;47.832;-3.800;2024-01-06T09:44:40;1.33;;;0.73;;
50880;SDS011;36858;47.832;-3.800;2024-01-06T09:47:07;3.57;;;0.90;;
50880;SDS011;36858;47.832;-3.800;2024-01-06T09:49:38;1.73;;;0.80;;
50880;SDS011;36858;47.832;-3.800;2024-01-06T09:52:14;1.83;;;0.60;;
50880;SDS011;36858;47.832;-3.800;2024-01-06T09:54:50;3.47;;;0.60;;
50880;SDS011;36858;47.832;-3.800;2024-01-06T09:57:18;0.80;;;0.60;;
50880;SDS011;36858;47.832;-3.800;2024-01-06T09:59:45;0.50;;;0.50;;
50880;SDS011;36858;47.832;-3.800;2024-01-06T10:02:16;0.57;;;0.47;;
50880;SDS011;36858;47.832;-3.800;2024-01-06T10:04:43;1.13;;;0.50;;
50880;SDS011;36858;47.832;-3.800;2024-01-06T10:07:11;2.40;;;1.03;;
50880;SDS011;36858;47.832;-3.800;2024-01-06T10:09:40;1.00;;;0.60;;
50880;SDS011;36858;47.832;-3.800;2024-01-06T10:12:09;3.87;;;0.70;;
50880;SDS011;36858;47.832;-3.800;2024-01-06T10:14:36;1.57;;;0.60;;
50880;SDS011;36858;47.832;-3.800;2024-01-06T10:17:05;1.43;;;0.60;;
50880;SDS011;36858;47.832;-3.800;2024-01-06T10:19:34;5.33;;;0.80;;
50880;SDS011;36858;47.832;-3.800;2024-01-06T10:22:02;2.40;;;0.70;;
50880;SDS011;36858;47.832;-3.800;2024-01-06T10:24:29;2.50;;;0.50;;
50880;SDS011;36858;47.832;-3.800;2024-01-06T10:26:58;4.43;;;0.90;;
50880;SDS011;36858;47.832;-3.800;2024-01-06T10:29:25;2.50;;;1.10;;
50880;SDS011;36858;47.832;-3.800;2024-01-06T10:31:53;2.23;;;0.80;;
50880;SDS011;36858;47.832;-3.800;2024-01-06T10:34:22;2.27;;;0.70;;
50880;SDS011;36858;47.832;-3.800;2024-01-06T10:36:50;2.10;;;0.50;;
50880;SDS011;36858;47.832;-3.800;2024-01-06T10:39:20;1.83;;;1.10;;
50880;SDS011;36858;47.832;-3.800;2024-01-06T10:41:48;2.50;;;0.60;;
50880;SDS011;36858;47.832;-3.800;2024-01-06T10:44:16;2.73;;;0.80;;
50880;SDS011;36858;47.832;-3.800;2024-01-06T10:46:44;2.83;;;0.50;;
50880;SDS011;36858;47.832;-3.800;2024-01-06T10:49:11;0.90;;;0.50;;
50880;SDS011;36858;47.832;-3.800;2024-01-06T10:51:39;2.43;;;0.53;;
50880;SDS011;36858;47.832;-3.800;2024-01-06T10:54:07;2.33;;;0.80;;
50880;SDS011;36858;47.832;-3.800;2024-01-06T10:56:38;0.90;;;0.60;;
50880;SDS011;36858;47.832;-3.800;2024-01-06T10:59:05;1.03;;;0.47;;
50880;SDS011;36858;47.832;-3.800;2024-01-06T11:01:34;1.30;;;0.60;;
50880;SDS011;36858;47.832;-3.800;2024-01-06T11:04:02;1.33;;;0.50;;
50880;SDS011;36858;47.832;-3.800;2024-01-06T11:06:33;1.20;;;0.60;;
50880;SDS011;36858;47.832;-3.800;2024-01-06T11:11:35;1.87;;;0.60;;
50880;SDS011;36858;47.832;-3.800;2024-01-06T11:16:52;3.83;;;0.50;;
50880;SDS011;36858;47.832;-3.800;2024-01-06T11:24:47;2.10;;;0.50;;
50880;SDS011;36858;47.832;-3.800;2024-01-06T11:27:22;0.93;;;0.53;;
50880;SDS011;36858;47.832;-3.800;2024-01-06T11:29:58;1.30;;;0.40;;
50880;SDS011;36858;47.832;-3.800;2024-01-06T11:32:33;2.30;;;0.60;;
50880;SDS011;36858;47.832;-3.800;2024-01-06T11:35:12;1.03;;;0.40;;
50880;SDS011;36858;47.832;-3.800;2024-01-06T11:42:48;1.20;;;0.60;;
50880;SDS011;36858;47.832;-3.800;2024-01-06T11:45:33;1.53;;;0.47;;
50880;SDS011;36858;47.832;-3.800;2024-01-06T11:48:05;0.70;;;0.37;;
50880;SDS011;36858;47.832;-3.800;2024-01-06T11:50:34;1.27;;;0.77;;
50880;SDS011;36858;47.832;-3.800;2024-01-06T11:53:03;3.43;;;1.10;;
50880;SDS011;36858;47.832;-3.800;2024-01-06T11:55:30;3.20;;;0.90;;
50880;SDS011;36858;47.832;-3.800;2024-01-06T11:58:01;6.43;;;1.50;;
50880;SDS011;36858;47.832;-3.800;2024-01-06T12:00:30;3.37;;;1.37;;
50880;SDS011;36858;47.832;-3.800;2024-01-06T12:02:58;4.33;;;1.27;;
50880;SDS011;36858;47.832;-3.800;2024-01-06T12:05:27;4.93;;;1.27;;
50880;SDS011;36858;47.832;-3.800;2024-01-06T12:07:55;2.70;;;0.70;;
50880;SDS011;36858;47.832;-3.800;2024-01-06T12:10:34;4.57;;;1.67;;
50880;SDS011;36858;47.832;-3.800;2024-01-06T12:13:02;4.50;;;1.10;;
50880;SDS011;36858;47.832;-3.800;2024-01-06T12:15:31;4.73;;;2.93;;
50880;SDS011;36858;47.832;-3.800;2024-01-06T12:17:59;3.93;;;1.40;;
50880;SDS011;36858;47.832;-3.800;2024-01-06T12:20:29;3.23;;;1.20;;
50880;SDS011;36858;47.832;-3.800;2024-01-06T12:22:56;3.50;;;1.40;;
50880;SDS011;36858;47.832;-3.800;2024-01-06T12:25:24;2.43;;;1.00;;
50880;SDS011;36858;47.832;-3.800;2024-01-06T12:27:52;3.53;;;1.17;;
50880;SDS011;36858;47.832;-3.800;2024-01-06T12:30:21;2.17;;;0.60;;
50880;SDS011;36858;47.832;-3.800;2024-01-06T12:32:49;2.57;;;0.67;;
50880;SDS011;36858;47.832;-3.800;2024-01-06T12:35:19;1.20;;;0.40;;
50880;SDS011;36858;47.832;-3.800;2024-01-06T12:37:47;2.00;;;0.50;;
50880;SDS011;36858;47.832;-3.800;2024-01-06T12:40:14;1.00;;;0.50;;
50880;SDS011;36858;47.832;-3.800;2024-01-06T12:42:44;1.97;;;0.53;;
50880;SDS011;36858;47.832;-3.800;2024-01-06T12:45:12;2.13;;;0.63;;
50880;SDS011;36858;47.832;-3.800;2024-01-06T12:47:39;1.57;;;0.90;;
50880;SDS011;36858;47.832;-3.800;2024-01-06T12:50:07;4.77;;;3.40;;
50880;SDS011;36858;47.832;-3.800;2024-01-06T12:52:35;8.13;;;5.53;;
50880;SDS011;36858;47.832;-3.800;2024-01-06T12:55:02;4.07;;;2.77;;
50880;SDS011;36858;47.832;-3.800;2024-01-06T12:57:30;2.87;;;1.00;;
50880;SDS011;36858;47.832;-3.800;2024-01-06T12:59:57;1.07;;;0.90;;
50880;SDS011;36858;47.832;-3.800;2024-01-06T13:02:24;1.83;;;0.80;;
50880;SDS011;36858;47.832;-3.800;2024-01-06T13:04:51;3.23;;;1.30;;
50880;SDS011;36858;47.832;-3.800;2024-01-06T13:07:18;0.80;;;0.60;;
50880;SDS011;36858;47.832;-3.800;2024-01-06T13:09:45;2.23;;;1.13;;
50880;SDS011;36858;47.832;-3.800;2024-01-06T13:12:12;1.10;;;0.70;;
50880;SDS011;36858;47.832;-3.800;2024-01-06T13:14:38;4.67;;;0.93;;
50880;SDS011;36858;47.832;-3.800;2024-01-06T13:17:05;2.13;;;0.77;;
50880;SDS011;36858;47.832;-3.800;2024-01-06T13:19:33;2.47;;;1.30;;
50880;SDS011;36858;47.832;-3.800;2024-01-06T13:22:00;9.97;;;5.00;;
50880;SDS011;36858;47.832;-3.800;2024-01-06T13:24:27;11.90;;;7.67;;
50880;SDS011;36858;47.832;-3.800;2024-01-06T13:26:54;10.87;;;5.87;;
50880;SDS011;36858;47.832;-3.800;2024-01-06T13:29:21;4.43;;;2.77;;
50880;SDS011;36858;47.832;-3.800;2024-01-06T13:31:48;3.50;;;2.27;;
50880;SDS011;36858;47.832;-3.800;2024-01-06T13:34:16;3.33;;;1.30;;
50880;SDS011;36858;47.832;-3.800;2024-01-06T13:36:44;0.63;;;0.50;;
50880;SDS011;36858;47.832;-3.800;2024-01-06T13:39:12;2.33;;;1.00;;
50880;SDS011;36858;47.832;-3.800;2024-01-06T13:41:47;1.47;;;0.50;;
50880;SDS011;36858;47.832;-3.800;2024-01-06T13:44:15;1.53;;;0.60;;
50880;SDS011;36858;47.832;-3.800;2024-01-06T13:46:42;3.37;;;1.27;;
50880;SDS011;36858;47.832;-3.800;2024-01-06T13:49:12;3.47;;;0.80;;
50880;SDS011;36858;47.832;-3.800;2024-01-06T13:51:40;2.20;;;0.60;;
50880;SDS011;36858;47.832;-3.800;2024-01-06T13:54:07;1.13;;;0.53;;
50880;SDS011;36858;47.832;-3.800;2024-01-06T13:56:34;3.17;;;0.80;;
50880;SDS011;36858;47.832;-3.800;2024-01-06T13:59:01;1.20;;;0.47;;
50880;SDS011;36858;47.832;-3.800;2024-01-06T14:01:28;6.83;;;0.83;;
50880;SDS011;36858;47.832;-3.800;2024-01-06T14:03:55;0.40;;;0.40;;
50880;SDS011;36858;47.832;-3.800;2024-01-06T14:06:27;2.07;;;0.80;;
50880;SDS011;36858;47.832;-3.800;2024-01-06T14:08:57;1.30;;;0.40;;
50880;SDS011;36858;47.832;-3.800;2024-01-06T14:11:25;1.57;;;0.53;;
50880;SDS011;36858;47.832;-3.800;2024-01-06T14:13:52;1.70;;;0.50;;
50880;SDS011;36858;47.832;-3.800;2024-01-06T14:16:19;1.77;;;0.50;;
50880;SDS011;36858;47.832;-3.800;2024-01-06T14:18:47;1.03;;;0.50;;
50880;SDS011;36858;47.832;-3.800;2024-01-06T14:21:14;2.63;;;0.63;;
50880;SDS011;36858;47.832;-3.800;2024-01-06T14:23:42;2.00;;;0.40;;
50880;SDS011;36858;47.832;-3.800;2024-01-06T14:26:09;0.50;;;0.40;;
50880;SDS011;36858;47.832;-3.800;2024-01-06T14:28:36;1.07;;;0.50;;
50880;SDS011;36858;47.832;-3.800;2024-01-06T14:31:03;0.90;;;0.40;;
50880;SDS011;36858;47.832;-3.800;2024-01-06T14:33:30;1.23;;;0.30;;
50880;SDS011;36858;47.832;-3.800;2024-01-06T14:35:57;0.63;;;0.30;;
50880;SDS011;36858;47.832;-3.800;2024-01-06T14:38:24;0.80;;;0.40;;
50880;SDS011;36858;47.832;-3.800;2024-01-06T14:40:51;0.20;;;0.20;;
50880;SDS011;36858;47.832;-3.800;2024-01-06T14:43:19;0.47;;;0.40;;
50880;SDS011;36858;47.832;-3.800;2024-01-06T14:45:47;0.40;;;0.40;;
50880;SDS011;36858;47.832;-3.800;2024-01-06T14:48:14;1.23;;;0.60;;
50880;SDS011;36858;47.832;-3.800;2024-01-06T14:50:41;6.40;;;1.60;;